logo
App data

Patrician III

Patrician III - sequel to the award winning game Patrician II - features advanced in-game AI, which adjusts its difficulty based on experience and ability. In this economic sandbox game you can gain wealth and power in multiple ways - what you will do with it is up to you.
Store | Hub | SteamDB
Developer: Ascaron Entertainment ltd. Publisher: Kalypso Media Digital
Genre: RPG, Simulation, Strategy
Languages: English
Tags: Strategy (62), Simulation (56), Trading (44), Management (37), Economy (36), RPG (34), Historical (33)
Category: Single-player
Release date: Nov 18, 2010
Price: $4.99
Old userscore: 77% Metascore: 75%
Owners: 100,000 .. 200,000
Followers: 1,588
Peak concurrent players yesterday: 36
YouTube stats: 14 views and 0 comments for videos uploaded last week, 1 new videos uploaded yesterday.
Playtime total: 00:22 (average) 00:22 (median)

Steam Spy is still in beta, so expect major bugs.

Owners data:

Access restricted.

This feature is only available to users with special access rights. Sorry.

If you want to proceed, you need to register or log in first and then back Steam Spy on Patreon. Look for Indie or Pro pledge.

Don't forget to use the same email as on Steam Spy!

Audience in 2 weeks:

Access restricted.

This feature is only available to users with special access rights. Sorry.

If you want to proceed, you need to register or log in first and then back Steam Spy on Patreon. Look for Indie or Pro pledge.

Don't forget to use the same email as on Steam Spy!

Peak daily concurrent players:

CCU data courtesy of SteamDB. Used with permission.

Hourly concurrent players:

Daily Twitch stats:

Hourly Twitch stats:

YouTube:

The views data is based on top 50 videos uploaded last week. Actual number of views might be more than the number shown.

The displayed number of videos uploaded yesterday is limited to 50, so if there were more videos uploaded, the number will still show 50.

If the game has commonly used word as its name (like "FEAR" or "Volume") its number of Youtube views might be wrong.

Games similar to this one:

# Game Release date
Price
Score rank
(Userscore / Metascore)
Owners
Players
Playtime (Median)
1 Grand Ages: Rome Mar 20, 2009 $9.99N/A (N/A/72%)200,000 .. 500,0000%00:00 (00:00)
2 Space Trader: Merchant Marine Oct 23, 2008 $0.99N/A (N/A)200,000 .. 500,0000%00:00 (00:00)
3 Crusaders: Thy Kingdom Come Oct 8, 2009 $9.99N/A (N/A)20,000 .. 50,0000%00:00 (00:00)
4 Maelstrom: The Battle for Earth Begins Feb 20, 2007 $4.99N/A (N/A/58%)20,000 .. 50,0000%00:00 (00:00)
5 Supreme Ruler 2020 Gold Jun 17, 2008 $9.99N/A (N/A/65%)50,000 .. 100,0000%00:00 (00:00)
6 Port Royale 2 Apr 30, 2004 $4.99N/A (N/A/75%)50,000 .. 100,0000%00:00 (00:00)
7 East India Company Jul 31, 2009 $9.99N/A (N/A/67%)50,000 .. 100,0000%00:00 (00:00)
8 9th Company: Roots Of Terror Dec 3, 2009 $9.99N/A (N/A)20,000 .. 50,0000%00:00 (00:00)
9 Dwarfs!? May 4, 2011 $9.99N/A (N/A)200,000 .. 500,0000%00:00 (00:00)
10 Heroes of Might & Magic V: Hammers of Fate Nov 14, 2006 $9.99N/A (N/A/66%)50,000 .. 100,0000%00:00 (00:00)
11 The Guild Gold Edition Nov 18, 2002 $9.99N/A (N/A/82%)100,000 .. 200,0000%00:00 (00:00)
12 Red Faction II Apr 9, 2003 $9.99N/A (N/A/64%)500,000 .. 1,000,0000%00:00 (00:00)
13 Sacraboar Nov 6, 2009 $2.99N/A (N/A)20,000 .. 50,0000%00:00 (00:00)
14 Imperium Romanum Gold Edition Oct 30, 2008 $9.99N/A (N/A/63%)100,000 .. 200,0000%00:00 (00:00)
15 Desperados 2: Cooper's Revenge May 2, 2006 $9.99N/A (N/A/66%)50,000 .. 100,0000%00:00 (00:00)
16 Europa Universalis: Rome - Gold Edition Nov 19, 2008 $9.99N/A (N/A/79%)50,000 .. 100,0000%00:00 (00:00)
17 Codename: Panzers - Cold War Mar 10, 2009 $14.99N/A (N/A)20,000 .. 50,0000%00:00 (00:00)
18 Two Worlds II Castle Defense Jun 14, 2011 $9.99N/A (N/A)200,000 .. 500,0001.16%05:07 (01:42)
19 Cossacks II: Napoleonic Wars Apr 26, 2005 $4.99N/A (N/A/73%)100,000 .. 200,0000%00:00 (00:00)
20 ThreadSpace: Hyperbol Jul 12, 2007 $4.99N/A (N/A)20,000 .. 50,0000%00:00 (00:00)
21 Age of Wonders Oct 2010 $5.99N/A (N/A)100,000 .. 200,0000%00:00 (00:00)
22 X-COM: Apocalypse Jul 15, 1997 $4.99N/A (N/A)500,000 .. 1,000,0000%00:00 (00:00)
23 American Conquest Feb 7, 2003 $4.99N/A (N/A/76%)100,000 .. 200,0000%00:00 (00:00)
24 Genesis Rising Mar 20, 2007 $4.99N/A (N/A/57%)20,000 .. 50,0000%00:00 (00:00)
25 Age of Wonders II: The Wizard's Throne Oct 2010 $9.99N/A (N/A/86%)50,000 .. 100,0000%00:00 (00:00)
26 X-COM: Interceptor Jun 15, 1998 $4.99N/A (N/A)500,000 .. 1,000,0000%00:00 (00:00)
27 Men of War: Condemned Heroes Apr 12, 2012 $7.99N/A (N/A/57%)100,000 .. 200,0000%00:00 (00:00)
28 Civilization IV: Warlords Jul 24, 2006 $4.99N/A (N/A/84%)1,000,000 .. 2,000,0000%00:00 (00:00)
29 Swords and Soldiers HD Dec 2, 2010 $9.99N/A (N/A)200,000 .. 500,0000%00:00 (00:00)
30 X-COM: Enforcer Apr 19, 2001 $4.99N/A (N/A/65%)500,000 .. 1,000,0000%00:00 (00:00)
31 Crusader Kings Complete Feb 14, 2012 $9.99N/A (N/A/73%)100,000 .. 200,0000%00:00 (00:00)
32 Rome: Total War - Alexander Jun 26, 2006 $12.99N/A (N/A/79%)500,000 .. 1,000,0000%00:00 (00:00)
33 Theatre of War 3: Korea Mar 24, 2011 $6.99N/A (N/A/49%)50,000 .. 100,0000%00:00 (00:00)
34 Warhammer 40,000: Dawn of War – Winter Assault Jan 1, 2006 $12.99N/A (N/A)500,000 .. 1,000,0000%00:00 (00:00)
35 Cubemen Mar 16, 2012 $3.99N/A (N/A/74%)100,000 .. 200,0000%00:00 (00:00)
36 Cossacks: European Wars Apr 24, 2001 $4.99N/A (N/A/74%)100,000 .. 200,0000%00:00 (00:00)
37 Archon Classic Nov 2, 2010 $9.99N/A (N/A)20,000 .. 50,0000%00:00 (00:00)
38 Company of Heroes: Opposing Fronts Sep 27, 2007 $19.99N/A (N/A/87%)2,000,000 .. 5,000,0000%00:00 (00:00)
39 Viking: Battle for Asgard Oct 17, 2012 $14.99N/A (N/A)1,000,000 .. 2,000,0000%00:00 (00:00)
40 Cossacks II: Battle for Europe Jun 19, 2006 $4.99N/A (N/A/69%)100,000 .. 200,0000%00:00 (00:00)
41 Fate of the World Feb 28, 2011 $9.99N/A (N/A/70%)50,000 .. 100,0000%00:00 (00:00)
42 Supreme Commander Feb 20, 2007 $12.99N/A (N/A/86%)1,000,000 .. 2,000,0002.13%01:48 (00:36)
43 Galactic Civilizations I: Ultimate Edition Aug 14, 2012 $9.99N/A (N/A/83%)200,000 .. 500,0000%00:00 (00:00)
44 Commandos: Beyond the Call of Duty Apr 7, 1999 $4.99N/A (N/A)500,000 .. 1,000,0000%00:00 (00:00)
45 Guardians of Graxia Nov 1, 2010 N/AN/A (N/A)50,000 .. 100,0000%00:00 (00:00)
46 Darwinia Jul 14, 2005 $9.99N/A (N/A/84%)500,000 .. 1,000,0000%00:00 (00:00)
47 Robin Hood: The Legend of Sherwood Nov 1, 2002 $7.99N/A (N/A/80%)100,000 .. 200,0000%00:00 (00:00)
48 Battlestations: Midway Jan 30, 2007 $6.99N/A (N/A/76%)200,000 .. 500,0000%00:00 (00:00)
49 Hydrophobia: Prophecy May 9, 2011 $4.99N/A (N/A/64%)200,000 .. 500,0000%00:00 (00:00)
50 Dangerous Waters Feb 7, 2006 $14.99N/A (N/A/82%)50,000 .. 100,0000%00:00 (00:00)
51 Ironclads: American Civil War Jan 8, 2009 $9.99N/A (N/A)20,000 .. 50,0000%00:00 (00:00)
52 ROD: Revolt Of Defense Aug 12, 2016 $0.99N/A (N/A)20,000 .. 50,0000%00:00 (00:00)
53 Honey Rose: Underdog Fighter Extraordinaire Sep 29, 2016 FreeN/A (N/A)20,000 .. 50,0000%00:00 (00:00)
54 Lazerbait Oct 14, 2016 FreeN/A (N/A)50,000 .. 100,0000%00:00 (00:00)
55 Microgons Mar 27, 2017 FreeN/A (N/A)20,000 .. 50,0000%00:00 (00:00)
56 Children of Orc Dec 20, 2016 FreeN/A (N/A)0 .. 20,0000%00:00 (00:00)
57 Gunman Taco Truck Jan 28, 2017 $2.99N/A (N/A)0 .. 20,0000%00:00 (00:00)
58 Master of Magic Chess May 23, 2017 FreeN/A (N/A)0 .. 20,0000%00:00 (00:00)
59 Cthulhu Realms Jul 1, 2016 N/AN/A (N/A)50,000 .. 100,0000%00:00 (00:00)
60 Steam 360 Video Player May 10, 2017 FreeN/A (N/A)100,000 .. 200,0000%00:00 (00:00)
61 Blight of the Immortals Oct 25, 2016 FreeN/A (N/A)20,000 .. 50,0000%00:00 (00:00)
62 Desperados: Wanted Dead or Alive Jul 23, 2001 $4.99N/A (N/A/78%)100,000 .. 200,0000%00:00 (00:00)
63 Sang-Froid - Tales of Werewolves Apr 5, 2013 FreeN/A (N/A/79%)200,000 .. 500,0000%00:00 (00:00)
64 Perimeter May 21, 2004 $3.99N/A (N/A/77%)20,000 .. 50,0000%00:00 (00:00)
65 Eador: Genesis Aug 7, 2009 $5.99N/A (N/A)50,000 .. 100,0000%00:00 (00:00)
66 Evolution RTS Apr 4, 2014 FreeN/A (N/A)100,000 .. 200,0000%00:00 (00:00)
67 UFO: Afterlight Feb 8, 2007 $6.99N/A (N/A/71%)200,000 .. 500,0000%00:00 (00:00)
68 Haegemonia: The Solon Heritage May 1, 2014 $4.99N/A (N/A)50,000 .. 100,0000%00:00 (00:00)
69 Skyward Collapse May 23, 2013 $4.99N/A (N/A/64%)50,000 .. 100,0000%00:00 (00:00)
70 Rush for Glory Jun 16, 2014 $14.99N/A (N/A)20,000 .. 50,0000%00:00 (00:00)
71 Ancient Space Sep 23, 2014 $19.99N/A (N/A)50,000 .. 100,0000%00:00 (00:00)
72 War in a Box: Paper Tanks Jul 4, 2014 $4.99N/A (N/A)50,000 .. 100,0000%00:00 (00:00)
73 Earth 2140 Nov 15, 2013 $4.99N/A (N/A)200,000 .. 500,0000%00:00 (00:00)
74 Hunters Of The Dead Sep 4, 2014 $4.99N/A (N/A)0 .. 20,0000%00:00 (00:00)
75 Silent Storm Gold Edition Sep 9, 2004 $9.99N/A (N/A/83%)100,000 .. 200,0000%00:00 (00:00)
76 Tiny Troopers Aug 24, 2012 $4.99N/A (N/A/57%)100,000 .. 200,0000%00:00 (00:00)
77 Void Destroyer Jan 20, 2015 $9.99N/A (N/A)50,000 .. 100,0000%00:00 (00:00)
78 Planets Under Attack Sep 27, 2012 $9.99N/A (N/A)200,000 .. 500,0000%00:00 (00:00)
79 Pang Adventures Apr 18, 2016 $9.99N/A (N/A)20,000 .. 50,0000%00:00 (00:00)
80 Seven Kingdoms 2 HD Feb 4, 2015 $9.99N/A (N/A)50,000 .. 100,0000%00:00 (00:00)
81 Cosmic Trip May 24, 2017 $19.99N/A (N/A)0 .. 20,0000%00:00 (00:00)
82 SHOGUN: Total War - Collection Jun 13, 2000 $9.99N/A (N/A)100,000 .. 200,0000%00:00 (00:00)
83 Quar: Battle for Gate 18 Apr 4, 2016 $19.99N/A (N/A)0 .. 20,0000%00:00 (00:00)
84 UFHO2 Apr 1, 2014 FreeN/A (N/A)20,000 .. 50,0000%00:00 (00:00)
85 Legends of Callasia Jun 10, 2016 $14.99N/A (N/A)50,000 .. 100,0000%00:00 (00:00)
86 World War I Jun 17, 2005 $4.99N/A (N/A)50,000 .. 100,0000%00:00 (00:00)
87 Crown and Council Jan 27, 2017 FreeN/A (N/A)100,000 .. 200,0000%00:00 (00:00)
88 Wyrmsun May 22, 2015 FreeN/A (N/A)20,000 .. 50,0000%00:00 (00:00)
89 Out of Ammo Sep 14, 2016 $14.99N/A (N/A)20,000 .. 50,0000%00:00 (00:00)
90 Feudalism Jun 14, 2016 $14.99N/A (N/A)0 .. 20,0000%00:00 (00:00)
91 A Healer Only Lives Twice Jun 2, 2016 $1.49N/A (N/A)0 .. 20,0000%00:00 (00:00)
92 Rise: Battle Lines Nov 17, 2015 N/AN/A (N/A)0 .. 20,0000%00:00 (00:00)
93 Reprisal Universe Sep 15, 2014 $6.99N/A (N/A)20,000 .. 50,0000%00:00 (00:00)
94 WARSHIFT Oct 12, 2016 $9.99N/A (N/A)20,000 .. 50,0000%00:00 (00:00)
95 Neocolonialism Nov 25, 2014 $2.99N/A (N/A)0 .. 20,0000%00:00 (00:00)

Tags over time:

Access restricted.

This feature is only available to users with special access rights. Sorry.

If you want to proceed, you need to register or log in first and then back Steam Spy on Patreon. Look for Indie or Pro pledge.

Don't forget to use the same email as on Steam Spy!

Owners of this game also own:

Access restricted.

This feature is only available to users with special access rights. Sorry.

If you want to proceed, you need to register or log in first and then back Steam Spy on Patreon. Look for Indie or Pro pledge.

Don't forget to use the same email as on Steam Spy!

Playtime distribution:

Access restricted.

This feature is only available to users with special access rights. Sorry.

If you want to proceed, you need to register or log in first and then back Steam Spy on Patreon. Look for Indie or Pro pledge.

Don't forget to use the same email as on Steam Spy!

Playtime (2 weeks):

Access restricted.

This feature is only available to users with special access rights. Sorry.

If you want to proceed, you need to register or log in first and then back Steam Spy on Patreon. Look for Indie or Pro pledge.

Don't forget to use the same email as on Steam Spy!

User reviews:

Login required.

Please register or log in to see this information.